createdAt,value
2017-09-25T00:02:26.890Z,13.80
2017-09-25T00:04:55.281Z,13.80
2017-09-25T00:07:22.956Z,13.80
2017-09-25T00:09:50.565Z,13.80
2017-09-25T00:12:18.166Z,13.90
2017-09-25T00:14:45.815Z,13.90
2017-09-25T00:17:13.560Z,13.90
2017-09-25T00:19:41.169Z,13.90
2017-09-25T00:22:08.833Z,13.90
2017-09-25T00:24:36.435Z,13.90
2017-09-25T00:27:04.807Z,13.90
2017-09-25T00:29:32.606Z,13.90
2017-09-25T00:32:00.232Z,14.00
2017-09-25T00:34:27.847Z,13.90
2017-09-25T00:36:55.615Z,14.00
2017-09-25T00:39:23.233Z,14.00
2017-09-25T00:41:50.846Z,14.00
2017-09-25T00:44:18.520Z,14.10
2017-09-25T00:46:46.122Z,14.10
2017-09-25T00:49:13.748Z,14.10
2017-09-25T00:51:41.415Z,14.10
2017-09-25T00:54:09.800Z,14.10
2017-09-25T00:56:38.202Z,14.10
2017-09-25T00:59:05.861Z,14.10
2017-09-25T01:04:48.161Z,14.20
2017-09-25T01:07:15.779Z,14.20
2017-09-25T01:09:43.380Z,14.20
2017-09-25T01:12:11.999Z,14.20
2017-09-25T01:14:39.602Z,14.20
2017-09-25T01:17:07.979Z,14.30
2017-09-25T01:19:35.629Z,14.30
2017-09-25T01:22:03.242Z,14.30
2017-09-25T01:24:30.865Z,14.30
2017-09-25T01:26:58.523Z,14.30
2017-09-25T01:29:26.126Z,14.30
2017-09-25T01:31:53.735Z,14.40
2017-09-25T01:34:21.377Z,14.40
2017-09-25T01:36:49.768Z,14.40
2017-09-25T01:39:17.362Z,14.40
2017-09-25T01:41:45.985Z,14.40
2017-09-25T01:44:13.578Z,14.40
2017-09-25T01:46:41.195Z,14.50
2017-09-25T01:49:08.866Z,14.50
2017-09-25T01:51:36.480Z,14.40
2017-09-25T01:54:04.157Z,14.40
2017-09-25T01:56:31.903Z,14.40
2017-09-25T01:58:59.520Z,14.40
2017-09-25T02:01:27.137Z,14.40
2017-09-25T02:03:55.016Z,14.40
2017-09-25T02:06:22.627Z,14.40
2017-09-25T02:08:50.990Z,14.40
2017-09-25T02:11:18.878Z,14.40
2017-09-25T02:13:46.505Z,14.40
2017-09-25T02:16:14.106Z,14.40
2017-09-25T02:18:41.754Z,14.40
2017-09-25T02:21:10.136Z,14.40
2017-09-25T02:23:38.525Z,14.40
2017-09-25T02:26:06.207Z,14.40
2017-09-25T02:28:34.588Z,14.40
2017-09-25T02:31:02.196Z,14.40
2017-09-25T02:33:30.041Z,14.40
2017-09-25T02:35:57.648Z,14.30
2017-09-25T02:38:25.282Z,14.40
2017-09-25T02:40:53.883Z,14.30
2017-09-25T02:43:21.492Z,14.30
2017-09-25T02:45:49.872Z,14.30
2017-09-25T02:48:17.536Z,14.30
2017-09-25T02:50:45.122Z,14.30
2017-09-25T02:53:12.734Z,14.30
2017-09-25T02:55:40.616Z,14.40
2017-09-25T02:58:08.233Z,14.40
2017-09-25T03:00:35.931Z,14.40
2017-09-25T03:03:04.410Z,14.40
2017-09-25T03:05:32.784Z,14.40
2017-09-25T03:08:00.388Z,14.40
2017-09-25T03:10:28.945Z,14.50
2017-09-25T03:12:56.545Z,14.40
2017-09-25T03:15:24.133Z,14.40
2017-09-25T03:17:51.785Z,14.40
2017-09-25T03:20:19.390Z,14.40
2017-09-25T03:22:46.991Z,14.40
2017-09-25T03:25:15.420Z,14.40
2017-09-25T03:27:43.192Z,14.40
2017-09-25T03:30:10.802Z,14.40
2017-09-25T03:32:38.590Z,14.50
2017-09-25T03:35:06.199Z,14.50
2017-09-25T03:37:34.390Z,14.40
2017-09-25T03:40:02.039Z,14.40
2017-09-25T03:42:29.666Z,14.40
2017-09-25T03:44:57.273Z,14.40
2017-09-25T03:47:24.940Z,14.50
2017-09-25T03:49:52.562Z,14.50
2017-09-25T03:52:20.186Z,14.50
2017-09-25T03:54:47.868Z,14.50
2017-09-25T03:57:15.462Z,14.50
2017-09-25T03:59:43.062Z,14.50
2017-09-25T04:02:10.812Z,14.50
2017-09-25T04:04:38.419Z,14.50
2017-09-25T04:07:06.045Z,14.50
2017-09-25T04:09:34.481Z,14.50
2017-09-25T04:12:02.088Z,14.50
2017-09-25T04:14:29.686Z,14.50
2017-09-25T04:16:57.485Z,14.50
2017-09-25T04:19:25.098Z,14.50
2017-09-25T04:21:52.712Z,14.50
2017-09-25T04:24:20.354Z,14.50
2017-09-25T04:26:48.116Z,14.50
2017-09-25T04:29:15.734Z,14.50
2017-09-25T04:31:43.700Z,14.50
2017-09-25T04:34:11.301Z,14.50
2017-09-25T04:36:38.895Z,14.50
2017-09-25T04:39:06.645Z,14.50
2017-09-25T04:41:34.250Z,14.50
2017-09-25T04:44:01.860Z,14.50
2017-09-25T04:46:30.285Z,14.40
2017-09-25T04:48:57.935Z,14.40
2017-09-25T04:51:25.564Z,14.40
2017-09-25T04:53:53.221Z,14.40
2017-09-25T04:56:20.870Z,14.40
2017-09-25T04:58:48.485Z,14.30
2017-09-25T05:01:16.163Z,14.40
2017-09-25T05:03:43.771Z,14.40
2017-09-25T05:06:11.383Z,14.40
2017-09-25T05:08:40.177Z,14.40
2017-09-25T05:11:07.826Z,14.40
2017-09-25T05:13:35.517Z,14.40
2017-09-25T05:16:03.541Z,14.40
2017-09-25T05:18:31.156Z,14.40
2017-09-25T05:20:59.262Z,14.40
2017-09-25T05:23:26.934Z,14.40
2017-09-25T05:25:54.538Z,14.50
2017-09-25T05:28:22.137Z,14.50
2017-09-25T05:30:50.568Z,14.50
2017-09-25T05:33:18.185Z,14.50
2017-09-25T05:35:45.786Z,14.50
2017-09-25T05:38:14.400Z,14.60
2017-09-25T05:40:42.016Z,14.50
2017-09-25T05:43:09.614Z,14.60
2017-09-25T05:45:37.277Z,14.60
2017-09-25T05:48:04.879Z,14.60
2017-09-25T05:50:32.554Z,14.60
2017-09-25T05:55:38.984Z,14.60
2017-09-25T05:58:06.592Z,14.60
2017-09-25T06:00:34.215Z,14.70
2017-09-25T06:03:02.630Z,14.70
2017-09-25T06:05:30.250Z,14.70
2017-09-25T06:07:57.864Z,14.70
2017-09-25T06:10:26.282Z,14.70
2017-09-25T06:12:53.904Z,14.70
2017-09-25T06:15:21.510Z,14.80
2017-09-25T06:17:49.154Z,14.70
2017-09-25T06:20:16.750Z,14.80
2017-09-25T06:22:44.351Z,14.80
2017-09-25T06:25:12.004Z,14.80
2017-09-25T06:27:39.616Z,14.80
2017-09-25T06:30:07.227Z,14.80
2017-09-25T06:32:34.885Z,14.80
2017-09-25T06:35:02.487Z,14.80
2017-09-25T06:37:30.866Z,14.90
2017-09-25T06:39:58.637Z,14.90
2017-09-25T06:42:26.230Z,14.90
2017-09-25T06:44:53.825Z,14.90
2017-09-25T06:47:21.474Z,14.90
2017-09-25T06:49:49.080Z,15.00
2017-09-25T06:52:17.467Z,15.00
2017-09-25T06:54:45.126Z,15.00
2017-09-25T06:57:12.727Z,15.10
2017-09-25T06:59:41.109Z,15.20
2017-09-25T07:02:08.872Z,15.10
2017-09-25T07:04:36.484Z,15.20
2017-09-25T07:07:04.851Z,15.20
2017-09-25T07:09:33.443Z,15.30
2017-09-25T07:12:01.056Z,15.30
2017-09-25T07:14:29.446Z,15.30
2017-09-25T07:16:57.109Z,15.30
2017-09-25T07:19:24.718Z,15.30
2017-09-25T07:21:53.097Z,15.50
2017-09-25T07:24:20.754Z,15.50
2017-09-25T07:26:48.359Z,15.60
2017-09-25T07:29:16.722Z,15.70
2017-09-25T07:31:45.172Z,15.90
2017-09-25T07:34:13.569Z,15.90
2017-09-25T07:36:41.197Z,15.90
2017-09-25T07:39:09.817Z,15.90
2017-09-25T07:41:37.432Z,15.90
2017-09-25T07:44:05.039Z,15.90
2017-09-25T07:46:32.687Z,15.90
2017-09-25T07:49:01.055Z,16.20
2017-09-25T07:51:28.654Z,16.20
2017-09-25T07:53:56.322Z,16.50
2017-09-25T07:56:23.917Z,16.80
2017-09-25T07:58:51.510Z,17.20
2017-09-25T08:01:19.161Z,17.30
2017-09-25T08:03:46.774Z,17.10
2017-09-25T08:06:14.419Z,16.90
2017-09-25T08:08:42.259Z,16.70
2017-09-25T08:11:09.858Z,16.50
2017-09-25T08:13:38.229Z,16.40
2017-09-25T08:16:07.058Z,16.40
2017-09-25T08:18:34.681Z,16.40
2017-09-25T08:21:02.311Z,16.40
2017-09-25T08:23:29.985Z,16.40
2017-09-25T08:25:57.604Z,16.40
2017-09-25T08:28:25.215Z,16.20
2017-09-25T08:30:52.861Z,16.10
2017-09-25T08:33:20.527Z,16.10
2017-09-25T08:35:48.900Z,16.00
2017-09-25T08:38:16.666Z,16.00
2017-09-25T08:40:44.267Z,16.10
2017-09-25T08:43:11.995Z,16.10
2017-09-25T08:45:39.787Z,16.20
2017-09-25T08:48:07.386Z,16.20
2017-09-25T08:50:34.991Z,16.30
2017-09-25T08:53:02.656Z,16.40
2017-09-25T08:55:30.280Z,16.50
2017-09-25T08:57:57.897Z,16.60
2017-09-25T09:00:26.501Z,16.70
2017-09-25T09:02:54.099Z,16.70
2017-09-25T09:05:21.699Z,16.90
2017-09-25T09:07:49.482Z,16.90
2017-09-25T09:10:17.087Z,17.00
2017-09-25T09:12:44.702Z,17.00
2017-09-25T09:15:13.276Z,16.70
2017-09-25T09:17:40.883Z,16.70
2017-09-25T09:20:08.507Z,16.70
2017-09-25T09:22:36.145Z,16.70
2017-09-25T09:25:03.752Z,16.70
2017-09-25T09:27:31.370Z,16.80
2017-09-25T09:29:59.920Z,17.00
2017-09-25T09:32:27.539Z,17.00
2017-09-25T09:34:55.168Z,16.90
2017-09-25T09:37:22.932Z,16.90
2017-09-25T09:39:50.546Z,16.80
2017-09-25T09:42:18.151Z,16.70
2017-09-25T09:44:45.955Z,16.80
2017-09-25T09:47:13.572Z,16.70
2017-09-25T09:49:41.934Z,16.70
2017-09-25T09:52:10.457Z,16.90
2017-09-25T09:54:38.058Z,16.80
2017-09-25T09:57:05.662Z,16.90
2017-09-25T09:59:33.350Z,17.00
2017-09-25T10:02:00.972Z,17.10
2017-09-25T10:04:28.571Z,17.10
2017-09-25T10:06:56.239Z,17.20
2017-09-25T10:09:23.844Z,17.30
2017-09-25T10:11:51.461Z,17.40
2017-09-25T10:14:19.996Z,17.40
2017-09-25T10:16:47.612Z,17.30
2017-09-25T10:19:15.206Z,17.30
2017-09-25T10:21:42.969Z,17.20
2017-09-25T10:24:11.329Z,17.40
2017-09-25T10:26:39.708Z,17.50
2017-09-25T10:29:07.377Z,17.50
2017-09-25T10:31:34.978Z,17.60
2017-09-25T10:34:03.345Z,17.80
2017-09-25T10:36:31.769Z,17.80
2017-09-25T10:38:59.389Z,17.80
2017-09-25T10:41:27.017Z,17.80
2017-09-25T10:43:54.675Z,17.80
2017-09-25T10:46:22.332Z,17.90
2017-09-25T10:48:49.952Z,18.00
2017-09-25T10:51:17.639Z,18.30
2017-09-25T10:53:45.291Z,18.60
2017-09-25T10:56:12.921Z,18.50
2017-09-25T10:58:40.754Z,18.70
2017-09-25T11:01:08.359Z,18.80
2017-09-25T11:03:35.985Z,18.90
2017-09-25T11:06:03.684Z,18.90
2017-09-25T11:08:31.324Z,19.00
2017-09-25T11:10:58.960Z,19.30
2017-09-25T11:13:27.392Z,19.50
2017-09-25T11:15:56.501Z,19.50
2017-09-25T11:18:24.202Z,19.50
2017-09-25T11:20:51.880Z,19.70
2017-09-25T11:23:20.303Z,19.70
2017-09-25T11:25:48.062Z,19.70
2017-09-25T11:28:15.826Z,19.70
2017-09-25T11:30:44.243Z,19.70
2017-09-25T11:33:11.851Z,19.70
2017-09-25T11:35:40.294Z,19.80
2017-09-25T11:38:07.989Z,19.80
2017-09-25T11:40:35.624Z,19.70
2017-09-25T11:43:03.325Z,19.80
2017-09-25T11:45:31.726Z,20.00
2017-09-25T11:47:59.633Z,19.90
2017-09-25T11:50:28.290Z,20.00
2017-09-25T11:52:57.238Z,19.90
2017-09-25T11:55:25.636Z,19.80
2017-09-25T11:57:53.283Z,19.80
2017-09-25T12:00:20.883Z,19.70
2017-09-25T12:02:49.245Z,19.20
2017-09-25T12:05:17.646Z,19.00
2017-09-25T12:07:45.270Z,19.00
2017-09-25T12:10:12.876Z,18.80
2017-09-25T12:12:40.506Z,18.70
2017-09-25T12:15:08.098Z,18.60
2017-09-25T12:17:36.454Z,18.50
2017-09-25T12:20:04.863Z,18.50
2017-09-25T12:22:32.472Z,18.50
2017-09-25T12:25:00.080Z,18.50
2017-09-25T12:27:27.710Z,18.60
2017-09-25T12:29:55.306Z,18.60
2017-09-25T12:32:23.005Z,18.60
2017-09-25T12:34:50.831Z,18.60
2017-09-25T12:37:18.428Z,18.60
2017-09-25T12:39:46.790Z,18.90
2017-09-25T12:42:15.212Z,18.90
2017-09-25T12:44:42.820Z,18.90
2017-09-25T12:47:10.516Z,18.80
2017-09-25T12:49:38.174Z,18.80
2017-09-25T12:52:05.784Z,18.70
2017-09-25T12:54:33.392Z,18.70
2017-09-25T12:57:01.167Z,18.60
2017-09-25T12:59:28.776Z,18.70
2017-09-25T13:01:57.205Z,18.60
2017-09-25T13:04:24.846Z,18.60
2017-09-25T13:06:52.505Z,18.70
2017-09-25T13:09:20.094Z,18.70
2017-09-25T13:11:47.784Z,18.70
2017-09-25T13:14:15.397Z,18.70
2017-09-25T13:16:43.004Z,18.70
2017-09-25T13:19:11.511Z,18.80
2017-09-25T13:21:39.102Z,18.70
2017-09-25T13:24:06.708Z,18.70
2017-09-25T13:26:34.346Z,18.70
2017-09-25T13:29:01.948Z,18.80
2017-09-25T13:31:30.319Z,19.20
2017-09-25T13:33:58.821Z,19.40
2017-09-25T13:36:26.414Z,19.40
2017-09-25T13:38:54.794Z,19.50
2017-09-25T13:41:22.554Z,19.40
2017-09-25T13:43:50.149Z,19.30
2017-09-25T13:46:17.756Z,19.10
2017-09-25T13:48:45.504Z,19.00
2017-09-25T13:51:13.110Z,18.90
2017-09-25T13:53:41.480Z,18.90
2017-09-25T13:56:09.879Z,18.90
2017-09-25T13:58:37.477Z,18.90
2017-09-25T14:03:39.869Z,18.30
2017-09-25T14:06:07.460Z,18.20
2017-09-25T14:08:36.580Z,15.90
2017-09-25T14:11:04.225Z,15.90
2017-09-25T14:13:31.843Z,15.60
2017-09-25T14:15:59.445Z,15.40
2017-09-25T14:18:27.098Z,15.30
2017-09-25T14:20:54.721Z,15.00
2017-09-25T14:23:22.336Z,14.90
2017-09-25T14:25:50.756Z,14.80
2017-09-25T14:28:18.356Z,14.70
2017-09-25T14:30:47.082Z,14.70
2017-09-25T14:33:15.133Z,14.80
2017-09-25T14:35:42.740Z,14.90
2017-09-25T14:38:10.351Z,15.00
2017-09-25T14:40:38.969Z,15.30
2017-09-25T14:43:06.585Z,15.30
2017-09-25T14:45:34.178Z,15.40
2017-09-25T14:48:01.823Z,15.50
2017-09-25T14:50:29.849Z,15.60
2017-09-25T14:52:57.515Z,15.70
2017-09-25T14:55:25.184Z,15.80
2017-09-25T14:57:52.782Z,15.90
2017-09-25T15:00:20.404Z,16.00
2017-09-25T15:02:48.050Z,16.10
2017-09-25T15:05:15.660Z,16.10
2017-09-25T15:07:43.257Z,16.20
2017-09-25T15:10:10.913Z,16.30
2017-09-25T15:12:38.526Z,16.30
2017-09-25T15:15:06.885Z,16.40
2017-09-25T15:17:35.417Z,16.50
2017-09-25T15:20:03.091Z,16.40
2017-09-25T15:22:31.452Z,16.50
2017-09-25T15:24:59.868Z,16.50
2017-09-25T15:27:27.485Z,16.50
2017-09-25T15:29:56.958Z,16.50
2017-09-25T15:32:25.609Z,16.50
2017-09-25T15:34:54.045Z,16.60
2017-09-25T15:37:21.651Z,16.60
2017-09-25T15:39:51.582Z,16.50
2017-09-25T15:42:19.321Z,16.50
2017-09-25T15:44:48.116Z,16.50
2017-09-25T15:47:16.563Z,16.50
2017-09-25T15:49:44.283Z,16.50
2017-09-25T15:52:12.595Z,16.50
2017-09-25T15:54:40.513Z,16.50
2017-09-25T15:57:08.105Z,16.40
2017-09-25T15:59:37.932Z,16.40
2017-09-25T16:02:06.396Z,16.40
2017-09-25T16:04:34.789Z,16.30
2017-09-25T16:07:02.442Z,16.30
2017-09-25T16:09:31.095Z,16.30
2017-09-25T16:11:58.695Z,16.30
2017-09-25T16:14:28.029Z,16.20
2017-09-25T16:16:55.903Z,16.20
2017-09-25T16:19:23.776Z,16.20
2017-09-25T16:21:51.412Z,16.10
2017-09-25T16:24:20.671Z,16.00
2017-09-25T16:26:48.285Z,16.00
2017-09-25T16:29:15.899Z,16.10
2017-09-25T16:31:44.333Z,16.00
2017-09-25T16:34:11.956Z,16.00
2017-09-25T16:36:39.542Z,15.90
2017-09-25T16:39:08.167Z,15.90
2017-09-25T16:41:35.783Z,15.80
2017-09-25T16:44:03.381Z,15.80
2017-09-25T16:46:31.820Z,15.80
2017-09-25T16:48:59.424Z,15.80
2017-09-25T16:51:27.801Z,15.80
2017-09-25T16:53:55.462Z,15.80
2017-09-25T16:56:23.075Z,15.80
2017-09-25T16:58:51.450Z,15.80
2017-09-25T17:01:19.120Z,15.80
2017-09-25T17:03:46.725Z,15.80
2017-09-25T17:06:15.098Z,15.80
2017-09-25T17:08:43.554Z,15.70
2017-09-25T17:11:11.923Z,15.70
2017-09-25T17:13:40.307Z,15.80
2017-09-25T17:16:08.202Z,15.70
2017-09-25T17:18:35.806Z,15.80
2017-09-25T17:21:03.402Z,15.80
2017-09-25T17:23:31.048Z,15.80
2017-09-25T17:25:58.645Z,15.80
2017-09-25T17:28:26.265Z,15.70
2017-09-25T17:30:54.085Z,15.70
2017-09-25T17:33:22.329Z,15.70
2017-09-25T17:35:49.944Z,15.70
2017-09-25T17:38:17.595Z,15.70
2017-09-25T17:40:45.542Z,15.60
2017-09-25T17:43:13.145Z,15.70
2017-09-25T17:45:41.834Z,15.60
2017-09-25T17:48:09.593Z,15.60
2017-09-25T17:50:37.289Z,15.60
2017-09-25T17:53:04.934Z,15.60
2017-09-25T17:55:33.077Z,15.50
2017-09-25T17:58:00.733Z,15.50
2017-09-25T18:00:28.407Z,15.50
2017-09-25T18:02:56.786Z,15.40
2017-09-25T18:05:24.392Z,15.40
2017-09-25T18:07:52.056Z,15.40
2017-09-25T18:10:21.864Z,15.30
2017-09-25T18:12:49.596Z,15.30
2017-09-25T18:15:18.773Z,15.30
2017-09-25T18:17:46.590Z,15.20
2017-09-25T18:20:15.747Z,15.20
2017-09-25T18:22:43.811Z,15.20
2017-09-25T18:25:11.991Z,15.20
2017-09-25T18:27:40.318Z,15.20
2017-09-25T18:30:08.313Z,15.20
2017-09-25T18:32:37.864Z,15.10
2017-09-25T18:35:05.962Z,15.00
2017-09-25T18:37:34.272Z,15.00
2017-09-25T18:40:03.149Z,15.00
2017-09-25T18:42:31.876Z,15.00
2017-09-25T18:44:59.725Z,15.00
2017-09-25T18:47:27.978Z,15.10
2017-09-25T18:49:55.642Z,15.00
2017-09-25T18:52:23.633Z,15.10
2017-09-25T18:54:52.035Z,15.10
2017-09-25T18:57:21.371Z,15.00
2017-09-25T18:59:49.696Z,15.00
2017-09-25T19:02:18.041Z,15.00
2017-09-25T19:04:45.792Z,15.00
2017-09-25T19:07:16.394Z,15.00
2017-09-25T19:09:46.288Z,14.90
2017-09-25T19:12:14.099Z,14.90
2017-09-25T19:14:42.105Z,14.90
2017-09-25T19:17:09.946Z,14.90
2017-09-25T19:19:38.742Z,14.90
2017-09-25T19:22:07.242Z,14.90
2017-09-25T19:24:35.192Z,14.90
2017-09-25T19:27:04.583Z,14.90
2017-09-25T19:29:34.014Z,14.90
2017-09-25T19:32:01.779Z,14.80
2017-09-25T19:34:29.684Z,14.90
2017-09-25T19:36:57.574Z,14.80
2017-09-25T19:39:25.192Z,14.80
2017-09-25T19:41:53.170Z,14.80
2017-09-25T19:44:21.588Z,14.80
2017-09-25T19:46:49.226Z,14.80
2017-09-25T19:49:19.364Z,14.80
2017-09-25T19:51:47.006Z,14.80
2017-09-25T19:54:29.486Z,14.80
2017-09-25T19:56:59.620Z,14.80
2017-09-25T19:59:27.206Z,14.80
2017-09-25T20:01:54.822Z,14.80
2017-09-25T20:04:22.487Z,14.70
2017-09-25T20:06:50.874Z,14.70
2017-09-25T20:09:18.496Z,14.70
2017-09-25T20:11:56.931Z,14.60
2017-09-25T20:14:27.977Z,14.70
2017-09-25T20:20:01.371Z,14.60
2017-09-25T20:22:29.180Z,14.50
2017-09-25T20:24:56.799Z,14.50
2017-09-25T20:27:25.180Z,14.50
2017-09-25T20:29:52.836Z,14.50
2017-09-25T20:32:20.447Z,14.50
2017-09-25T20:34:48.820Z,14.50
2017-09-25T20:37:16.500Z,14.50
2017-09-25T20:39:44.095Z,14.50
2017-09-25T20:45:14.269Z,14.40
2017-09-25T20:47:41.939Z,14.40
2017-09-25T20:50:10.383Z,14.40
2017-09-25T20:52:38.008Z,14.40
2017-09-25T20:55:05.672Z,14.40
2017-09-25T20:57:33.303Z,14.40
2017-09-25T21:00:00.912Z,14.40
2017-09-25T21:02:28.776Z,14.40
2017-09-25T21:04:56.458Z,14.40
2017-09-25T21:07:24.839Z,14.30
2017-09-25T21:09:52.490Z,14.30
2017-09-25T21:12:20.884Z,14.30
2017-09-25T21:14:48.591Z,14.30
2017-09-25T21:17:16.265Z,14.20
2017-09-25T21:19:43.898Z,14.20
2017-09-25T21:22:12.296Z,14.20
2017-09-25T21:24:39.976Z,14.20
2017-09-25T21:27:08.043Z,14.20
2017-09-25T21:29:35.652Z,14.20
2017-09-25T21:32:03.322Z,14.10
2017-09-25T21:34:30.926Z,14.20
2017-09-25T21:36:58.544Z,14.20
2017-09-25T21:39:26.314Z,14.20
2017-09-25T21:41:54.002Z,14.20
2017-09-25T21:44:21.611Z,14.20
2017-09-25T21:46:49.450Z,14.10
2017-09-25T21:49:17.116Z,14.20
2017-09-25T21:51:44.721Z,14.20
2017-09-25T21:54:13.142Z,14.10
2017-09-25T21:56:40.754Z,14.10
2017-09-25T21:59:08.381Z,14.10
2017-09-25T22:01:36.036Z,14.10
2017-09-25T22:04:03.657Z,14.10
2017-09-25T22:06:32.036Z,14.10
2017-09-25T22:08:59.783Z,14.10
2017-09-25T22:11:27.499Z,14.10
2017-09-25T22:13:55.893Z,14.10
2017-09-25T22:16:23.564Z,14.10
2017-09-25T22:18:51.193Z,14.10
2017-09-25T22:21:18.809Z,14.10
2017-09-25T22:23:47.405Z,14.00
2017-09-25T22:26:15.029Z,14.00
2017-09-25T22:28:43.414Z,14.00
2017-09-25T22:31:11.163Z,14.00
2017-09-25T22:33:38.775Z,14.00
2017-09-25T22:36:07.156Z,14.00
2017-09-25T22:38:35.590Z,14.00
2017-09-25T22:41:03.205Z,14.00
2017-09-25T22:43:36.551Z,14.00
2017-09-25T22:46:04.171Z,14.00
2017-09-25T22:48:32.554Z,14.00
2017-09-25T22:51:00.225Z,14.00
2017-09-25T22:53:27.834Z,14.00
2017-09-25T22:55:56.206Z,14.00
2017-09-25T22:58:23.851Z,14.00
2017-09-25T23:00:51.466Z,14.10
2017-09-25T23:03:19.075Z,14.00
2017-09-25T23:06:02.428Z,14.00
2017-09-25T23:08:30.022Z,14.00
2017-09-25T23:10:58.393Z,14.00
2017-09-25T23:13:26.137Z,14.00
2017-09-25T23:15:53.745Z,14.00
2017-09-25T23:18:22.125Z,14.00
2017-09-25T23:20:49.787Z,13.70
2017-09-25T23:23:17.382Z,14.00
2017-09-25T23:25:44.985Z,14.00
2017-09-25T23:28:12.679Z,14.00
2017-09-25T23:30:42.740Z,14.00
2017-09-25T23:33:10.361Z,14.00
2017-09-25T23:35:38.028Z,14.00
2017-09-25T23:38:05.648Z,14.00
2017-09-25T23:40:33.298Z,13.90
2017-09-25T23:43:01.158Z,13.90
2017-09-25T23:45:28.753Z,13.90
2017-09-25T23:47:57.119Z,13.90
2017-09-25T23:50:25.593Z,13.90
2017-09-25T23:52:53.305Z,13.90
2017-09-25T23:55:20.924Z,13.90
2017-09-25T23:57:48.595Z,13.90
